OOMS/MCT METAR and TAF weather

Enter ICAO airport designator
Station Type Date Time Source
OOMS METAR 2019/04/18 09:50 UTC NOAA

OOMS 180950Z 05007KT CAVOK 31/21 Q1011 NOSIG


Station Type Date Time Source
OOMS Decoded METAR 2019/04/18 09:50 UTC NOAA

Seeb, International Airport, Oman (OOMS) 23-35N 058-17E 17M
Apr 18, 2019 - 05:50 AM EDT / 2019.04.18 0950 UTC
Wind: from the NE (050 degrees) at 8 MPH (7 KT):0
Visibility: greater than 7 mile(s):0
Temperature: 87 F (31 C)
Dew Point: 69 F (21 C)
Relative Humidity: 55%
Pressure (altimeter): 29.85 in. Hg (1011 hPa)
ob: OOMS 180950Z 05007KT CAVOK 31/21 Q1011 NOSIG
cycle: 10

Station Type Date Time Source
OOMS TAF 2019/04/18 06:03 UTC NOAA

TAF OOMS 180500Z 1806/1912 04012KT 8000 BKN050
BECMG 1816/1818 VRB02KT
BECMG 1905/1907 04012KT

Example: see airport list